createdAt,value
2023-09-23T00:00:18.255Z,7.84
2023-09-23T00:02:45.869Z,8.07
2023-09-23T00:05:17.280Z,7.88
2023-09-23T00:07:45.825Z,7.59
2023-09-23T00:10:14.688Z,8.07
2023-09-23T00:12:42.703Z,7.89
2023-09-23T00:15:12.655Z,8.01
2023-09-23T00:17:42.050Z,7.96
2023-09-23T00:20:15.817Z,8.01
2023-09-23T00:22:43.645Z,7.99
2023-09-23T00:25:11.188Z,7.96
2023-09-23T00:27:40.585Z,7.85
2023-09-23T00:30:09.041Z,7.81
2023-09-23T00:32:38.972Z,7.64
2023-09-23T00:35:08.136Z,7.60
2023-09-23T00:37:35.638Z,7.51
2023-09-23T00:40:04.440Z,7.43
2023-09-23T00:42:32.029Z,7.51
2023-09-23T00:45:00.892Z,7.57
2023-09-23T00:47:28.449Z,7.55
2023-09-23T00:49:56.110Z,7.40
2023-09-23T00:52:23.663Z,7.44
2023-09-23T00:54:52.302Z,7.44
2023-09-23T00:57:19.854Z,7.50
2023-09-23T00:59:47.960Z,7.64
2023-09-23T01:02:16.949Z,7.76
2023-09-23T01:04:44.949Z,7.68
2023-09-23T01:07:12.502Z,7.72
2023-09-23T01:09:40.898Z,7.72
2023-09-23T01:12:09.816Z,7.80
2023-09-23T01:14:37.274Z,7.87
2023-09-23T01:17:11.323Z,7.95
2023-09-23T01:19:40.429Z,7.97
2023-09-23T01:22:09.689Z,7.85
2023-09-23T01:24:38.710Z,8.02
2023-09-23T01:27:06.224Z,7.80
2023-09-23T01:29:34.082Z,8.17
2023-09-23T01:32:21.765Z,8.14
2023-09-23T01:34:49.888Z,8.22
2023-09-23T01:37:18.707Z,8.25
2023-09-23T01:39:48.862Z,8.19
2023-09-23T01:42:16.338Z,8.28
2023-09-23T01:44:45.112Z,8.26
2023-09-23T01:47:12.654Z,8.26
2023-09-23T01:49:40.554Z,8.34
2023-09-23T01:52:08.043Z,8.38
2023-09-23T01:54:35.676Z,8.36
2023-09-23T01:57:05.148Z,8.34
2023-09-23T01:59:33.510Z,8.34
2023-09-23T02:02:01.238Z,8.33
2023-09-23T02:04:28.776Z,8.34
2023-09-23T02:06:56.384Z,8.30
2023-09-23T02:09:24.150Z,8.25
2023-09-23T02:11:54.864Z,8.31
2023-09-23T02:14:23.716Z,8.36
2023-09-23T02:16:51.271Z,8.42
2023-09-23T02:19:19.326Z,8.59
2023-09-23T02:21:47.356Z,8.65
2023-09-23T02:24:14.832Z,8.72
2023-09-23T02:26:42.306Z,8.75
2023-09-23T02:29:11.463Z,8.76
2023-09-23T02:31:40.311Z,8.73
2023-09-23T02:34:11.179Z,8.80
2023-09-23T02:36:39.785Z,8.81
2023-09-23T02:39:07.517Z,8.82
2023-09-23T02:41:35.065Z,8.78
2023-09-23T02:44:05.139Z,8.69
2023-09-23T02:46:33.191Z,8.83
2023-09-23T02:49:02.089Z,8.86
2023-09-23T02:51:29.561Z,8.83
2023-09-23T02:53:57.208Z,8.84
2023-09-23T02:56:24.850Z,8.87
2023-09-23T02:58:53.276Z,8.87
2023-09-23T03:01:20.792Z,8.86
2023-09-23T03:03:48.925Z,8.76
2023-09-23T03:06:19.204Z,8.86
2023-09-23T03:08:49.124Z,8.87
2023-09-23T03:11:19.382Z,8.86
2023-09-23T03:13:47.026Z,8.86
2023-09-23T03:16:15.637Z,8.86
2023-09-23T03:18:56.035Z,8.82
2023-09-23T03:21:24.966Z,8.79
2023-09-23T03:23:53.341Z,8.84
2023-09-23T03:26:22.036Z,8.87
2023-09-23T03:28:48.860Z,8.83
2023-09-23T03:31:16.510Z,8.86
2023-09-23T03:33:46.083Z,8.74
2023-09-23T03:36:17.811Z,8.86
2023-09-23T03:38:47.398Z,8.87
2023-09-23T03:41:15.224Z,8.85
2023-09-23T03:43:42.713Z,8.88
2023-09-23T03:46:13.924Z,8.83
2023-09-23T03:48:41.449Z,8.88
2023-09-23T03:51:10.777Z,8.94
2023-09-23T03:53:38.325Z,8.85
2023-09-23T03:56:07.933Z,8.84
2023-09-23T03:58:35.495Z,8.75
2023-09-23T04:01:08.044Z,8.70
2023-09-23T04:03:35.637Z,8.59
2023-09-23T04:06:03.239Z,8.58
2023-09-23T04:08:30.793Z,8.51
2023-09-23T04:10:58.975Z,8.51
2023-09-23T04:13:27.950Z,8.43
2023-09-23T04:16:01.310Z,8.36
2023-09-23T04:18:29.209Z,8.33
2023-09-23T04:20:57.568Z,8.09
2023-09-23T04:23:25.923Z,8.20
2023-09-23T04:25:53.465Z,8.10
2023-09-23T04:28:21.153Z,8.20
2023-09-23T04:30:53.358Z,7.85
2023-09-23T04:33:21.392Z,8.27
2023-09-23T04:35:49.372Z,8.29
2023-09-23T04:38:17.057Z,8.37
2023-09-23T04:40:44.913Z,8.33
2023-09-23T04:43:13.350Z,8.39
2023-09-23T04:45:40.855Z,8.43
2023-09-23T04:48:11.047Z,8.41
2023-09-23T04:50:40.810Z,8.39
2023-09-23T04:53:08.975Z,8.20
2023-09-23T04:55:36.947Z,8.32
2023-09-23T04:58:04.613Z,8.33
2023-09-23T05:00:33.786Z,8.32
2023-09-23T05:03:02.078Z,8.25
2023-09-23T05:05:32.067Z,8.19
2023-09-23T05:08:00.771Z,8.16
2023-09-23T05:10:29.159Z,8.04
2023-09-23T05:12:57.992Z,8.16
2023-09-23T05:15:25.810Z,8.20
2023-09-23T05:17:53.842Z,8.25
2023-09-23T05:20:22.865Z,8.18
2023-09-23T05:22:51.710Z,8.20
2023-09-23T05:25:19.598Z,8.14
2023-09-23T05:27:47.132Z,8.14
2023-09-23T05:30:15.465Z,8.20
2023-09-23T05:32:45.101Z,8.28
2023-09-23T05:35:12.779Z,8.29
2023-09-23T05:37:41.234Z,8.32
2023-09-23T05:40:19.993Z,8.35
2023-09-23T05:42:48.738Z,8.44
2023-09-23T05:45:16.442Z,8.52
2023-09-23T05:47:44.084Z,8.65
2023-09-23T05:50:13.584Z,8.73
2023-09-23T05:52:41.125Z,8.83
2023-09-23T05:55:10.581Z,8.92
2023-09-23T05:57:39.918Z,8.93
2023-09-23T06:00:09.160Z,8.95
2023-09-23T06:02:37.046Z,8.96
2023-09-23T06:05:04.886Z,9.01
2023-09-23T06:07:33.390Z,8.93
2023-09-23T06:10:01.453Z,9.05
2023-09-23T06:12:31.476Z,9.02
2023-09-23T06:14:59.456Z,9.04
2023-09-23T06:17:28.847Z,9.17
2023-09-23T06:19:58.235Z,8.70
2023-09-23T06:22:26.702Z,8.91
2023-09-23T06:24:54.655Z,9.11
2023-09-23T06:27:22.389Z,9.04
2023-09-23T06:29:51.305Z,8.94
2023-09-23T06:32:18.891Z,9.01
2023-09-23T06:34:46.434Z,9.20
2023-09-23T06:37:14.051Z,9.39
2023-09-23T06:39:41.762Z,9.53
2023-09-23T06:42:09.348Z,9.14
2023-09-23T06:44:36.866Z,9.64
2023-09-23T06:47:06.017Z,9.82
2023-09-23T06:49:33.675Z,9.82
2023-09-23T06:52:01.333Z,9.87
2023-09-23T06:54:28.996Z,9.60
2023-09-23T06:56:56.859Z,9.94
2023-09-23T06:59:24.698Z,9.90
2023-09-23T07:01:52.500Z,10.01
2023-09-23T07:04:21.618Z,9.94
2023-09-23T07:06:49.721Z,10.03
2023-09-23T07:09:17.281Z,9.98
2023-09-23T07:11:44.950Z,9.87
2023-09-23T07:14:12.619Z,9.55
2023-09-23T07:16:40.193Z,9.94
2023-09-23T07:19:09.021Z,9.77
2023-09-23T07:21:37.873Z,9.81
2023-09-23T07:24:08.827Z,9.94
2023-09-23T07:26:38.458Z,9.96
2023-09-23T07:29:06.064Z,9.98
2023-09-23T07:31:33.627Z,9.98
2023-09-23T07:34:01.130Z,9.92
2023-09-23T07:36:28.669Z,9.95
2023-09-23T07:38:57.560Z,9.95
2023-09-23T07:41:25.144Z,9.99
2023-09-23T07:43:52.843Z,9.97
2023-09-23T07:46:20.600Z,9.92
2023-09-23T07:48:48.374Z,10.08
2023-09-23T07:51:16.050Z,10.15
2023-09-23T07:53:43.688Z,10.19
2023-09-23T07:56:12.648Z,10.35
2023-09-23T07:58:40.218Z,10.49
2023-09-23T08:01:07.737Z,10.54
2023-09-23T08:03:35.311Z,10.62
2023-09-23T08:06:02.942Z,10.32
2023-09-23T08:08:30.598Z,10.61
2023-09-23T08:10:58.251Z,10.74
2023-09-23T08:13:27.289Z,10.77
2023-09-23T08:15:59.145Z,10.54
2023-09-23T08:18:26.780Z,10.64
2023-09-23T08:20:58.153Z,10.42
2023-09-23T08:23:27.065Z,10.49
2023-09-23T08:25:55.075Z,10.49
2023-09-23T08:28:22.627Z,10.62
2023-09-23T08:30:52.700Z,10.88
2023-09-23T08:33:20.284Z,10.88
2023-09-23T08:35:48.962Z,11.15
2023-09-23T08:38:16.692Z,11.71
2023-09-23T08:40:46.424Z,11.61
2023-09-23T08:43:14.118Z,11.69
2023-09-23T08:45:44.648Z,11.74
2023-09-23T08:48:14.479Z,11.61
2023-09-23T08:50:45.146Z,11.84
2023-09-23T08:53:15.491Z,11.71
2023-09-23T08:55:45.996Z,11.92
2023-09-23T08:58:13.585Z,12.15
2023-09-23T09:00:46.696Z,11.99
2023-09-23T09:03:15.785Z,12.39
2023-09-23T09:05:44.503Z,12.31
2023-09-23T09:08:12.438Z,11.98
2023-09-23T09:10:41.334Z,12.74
2023-09-23T09:13:09.430Z,12.88
2023-09-23T09:15:37.464Z,12.10
2023-09-23T09:18:05.984Z,12.36
2023-09-23T09:20:35.520Z,12.58
2023-09-23T09:23:04.089Z,12.67
2023-09-23T09:25:32.474Z,12.86
2023-09-23T09:28:00.224Z,12.91
2023-09-23T09:30:28.586Z,12.89
2023-09-23T09:33:01.392Z,12.96
2023-09-23T09:35:29.612Z,12.90
2023-09-23T09:38:16.796Z,12.73
2023-09-23T09:40:46.405Z,12.95
2023-09-23T09:43:15.847Z,12.75
2023-09-23T09:45:45.614Z,12.64
2023-09-23T09:48:15.083Z,12.76
2023-09-23T09:50:43.737Z,13.00
2023-09-23T09:53:13.538Z,12.84
2023-09-23T09:55:41.851Z,12.56
2023-09-23T09:58:09.385Z,12.36
2023-09-23T10:00:43.349Z,12.95
2023-09-23T10:03:14.059Z,13.14
2023-09-23T10:05:47.310Z,13.38
2023-09-23T10:08:20.958Z,13.15
2023-09-23T10:10:50.088Z,13.13
2023-09-23T10:13:19.398Z,13.11
2023-09-23T10:15:47.296Z,12.76
2023-09-23T10:18:16.600Z,12.75
2023-09-23T10:20:49.280Z,12.17
2023-09-23T10:23:20.303Z,12.73
2023-09-23T10:25:52.329Z,12.86
2023-09-23T10:28:23.359Z,12.77
2023-09-23T10:30:58.764Z,13.09
2023-09-23T10:33:27.534Z,13.17
2023-09-23T10:35:58.015Z,13.38
2023-09-23T10:38:31.834Z,12.95
2023-09-23T10:41:00.054Z,13.47
2023-09-23T10:43:28.930Z,13.33
2023-09-23T10:45:58.039Z,13.16
2023-09-23T10:48:25.832Z,13.20
2023-09-23T10:50:53.730Z,12.81
2023-09-23T10:53:23.209Z,13.67
2023-09-23T10:55:53.267Z,13.66
2023-09-23T10:58:22.360Z,14.10
2023-09-23T11:00:52.618Z,13.40
2023-09-23T11:03:23.141Z,13.61
2023-09-23T11:05:52.470Z,14.03
2023-09-23T11:08:20.575Z,12.85
2023-09-23T11:10:50.594Z,13.40
2023-09-23T11:13:20.500Z,13.60
2023-09-23T11:15:49.289Z,13.64
2023-09-23T11:18:19.120Z,14.23
2023-09-23T11:20:48.545Z,14.23
2023-09-23T11:23:16.805Z,13.84
2023-09-23T11:25:46.456Z,13.55
2023-09-23T11:28:19.758Z,13.02
2023-09-23T11:30:48.292Z,13.22
2023-09-23T11:33:16.819Z,12.69
2023-09-23T11:35:46.371Z,12.42
2023-09-23T11:38:14.891Z,13.10
2023-09-23T11:40:43.045Z,12.97
2023-09-23T11:43:10.891Z,12.74
2023-09-23T11:45:40.964Z,12.35
2023-09-23T11:48:09.980Z,12.77
2023-09-23T11:50:38.901Z,12.48
2023-09-23T11:53:09.056Z,12.78
2023-09-23T11:55:37.166Z,12.85
2023-09-23T11:58:08.367Z,12.85
2023-09-23T12:00:36.386Z,12.42
2023-09-23T12:03:06.100Z,12.73
2023-09-23T12:05:33.953Z,12.69
2023-09-23T12:08:02.327Z,12.87
2023-09-23T12:10:31.303Z,12.41
2023-09-23T12:13:04.789Z,13.13
2023-09-23T12:15:33.369Z,12.54
2023-09-23T12:18:01.569Z,12.93
2023-09-23T12:20:30.856Z,12.31
2023-09-23T12:23:00.793Z,13.07
2023-09-23T12:25:28.708Z,12.86
2023-09-23T12:27:56.445Z,13.49
2023-09-23T12:30:24.354Z,13.83
2023-09-23T12:32:52.250Z,13.64
2023-09-23T12:35:20.224Z,13.90
2023-09-23T12:37:50.025Z,13.81
2023-09-23T12:40:17.760Z,13.09
2023-09-23T12:42:45.610Z,13.51
2023-09-23T12:45:14.120Z,13.32
2023-09-23T12:47:56.231Z,13.82
2023-09-23T12:50:24.746Z,13.44
2023-09-23T12:52:54.369Z,13.64
2023-09-23T12:55:22.139Z,13.84
2023-09-23T12:57:50.255Z,14.08
2023-09-23T13:00:18.097Z,14.46
2023-09-23T13:02:45.809Z,15.02
2023-09-23T13:05:16.395Z,14.56
2023-09-23T13:07:44.232Z,14.85
2023-09-23T13:10:14.773Z,14.71
2023-09-23T13:12:43.068Z,14.81
2023-09-23T13:15:10.718Z,14.73
2023-09-23T13:17:38.797Z,14.74
2023-09-23T13:20:07.701Z,14.65
2023-09-23T13:22:35.227Z,14.66
2023-09-23T13:25:03.109Z,14.77
2023-09-23T13:27:32.863Z,14.72
2023-09-23T13:30:00.441Z,14.62
2023-09-23T13:32:28.212Z,14.36
2023-09-23T13:34:55.780Z,14.61
2023-09-23T13:37:23.315Z,14.76
2023-09-23T13:39:50.801Z,14.72
2023-09-23T13:42:18.532Z,14.31
2023-09-23T13:44:50.887Z,14.55
2023-09-23T13:47:18.981Z,14.64
2023-09-23T13:49:46.644Z,14.01
2023-09-23T13:52:14.247Z,14.61
2023-09-23T13:54:41.788Z,15.16
2023-09-23T13:57:09.958Z,15.45
2023-09-23T13:59:37.545Z,14.63
2023-09-23T14:02:06.651Z,15.04
2023-09-23T14:04:34.367Z,15.85
2023-09-23T14:07:01.984Z,15.40
2023-09-23T14:09:29.536Z,15.49
2023-09-23T14:11:57.861Z,16.10
2023-09-23T14:14:25.524Z,16.10
2023-09-23T14:16:53.169Z,16.39
2023-09-23T14:19:22.165Z,16.62
2023-09-23T14:21:49.807Z,15.11
2023-09-23T14:24:17.597Z,15.49
2023-09-23T14:26:45.690Z,15.81
2023-09-23T14:29:13.331Z,15.72
2023-09-23T14:31:40.983Z,16.01
2023-09-23T14:34:09.316Z,15.91
2023-09-23T14:36:38.718Z,15.78
2023-09-23T14:39:06.581Z,15.55
2023-09-23T14:41:34.834Z,15.47
2023-09-23T14:44:02.891Z,15.14
2023-09-23T14:46:30.651Z,15.46
2023-09-23T14:48:58.328Z,15.62
2023-09-23T14:51:25.959Z,15.48
2023-09-23T14:53:54.967Z,15.80
2023-09-23T14:56:23.566Z,16.23
2023-09-23T14:58:51.250Z,15.90
2023-09-23T15:01:18.930Z,15.43
2023-09-23T15:03:46.857Z,15.39
2023-09-23T15:06:14.649Z,15.05
2023-09-23T15:08:57.885Z,14.72
2023-09-23T15:11:29.783Z,14.91
2023-09-23T15:13:58.266Z,15.51
2023-09-23T15:16:26.204Z,14.82
2023-09-23T15:18:54.025Z,14.46
2023-09-23T15:21:22.613Z,14.50
2023-09-23T15:23:50.292Z,15.29
2023-09-23T15:26:18.871Z,15.71
2023-09-23T15:28:48.310Z,15.57
2023-09-23T15:31:16.083Z,15.11
2023-09-23T15:33:43.925Z,15.29
2023-09-23T15:36:13.184Z,14.88
2023-09-23T15:38:41.113Z,14.35
2023-09-23T15:41:10.183Z,14.89
2023-09-23T15:43:38.516Z,15.36
2023-09-23T15:46:07.497Z,15.67
2023-09-23T15:48:35.709Z,15.68
2023-09-23T15:51:10.354Z,16.39
2023-09-23T15:53:38.569Z,16.19
2023-09-23T15:56:07.913Z,16.19
2023-09-23T15:58:35.777Z,15.72
2023-09-23T16:01:05.310Z,15.81
2023-09-23T16:03:35.148Z,16.07
2023-09-23T16:06:03.137Z,16.05
2023-09-23T16:08:30.917Z,15.84
2023-09-23T16:10:58.664Z,15.82
2023-09-23T16:13:26.231Z,14.98
2023-09-23T16:15:53.845Z,15.60
2023-09-23T16:18:23.246Z,14.68
2023-09-23T16:20:52.933Z,15.40
2023-09-23T16:23:20.681Z,15.53
2023-09-23T16:25:48.368Z,15.52
2023-09-23T16:28:15.912Z,15.50
2023-09-23T16:30:43.508Z,15.27
2023-09-23T16:33:12.391Z,15.42
2023-09-23T16:35:40.176Z,15.16
2023-09-23T16:38:09.226Z,14.99
2023-09-23T16:40:37.155Z,14.85
2023-09-23T16:43:05.150Z,14.25
2023-09-23T16:45:32.827Z,13.95
2023-09-23T16:48:00.578Z,13.82
2023-09-23T16:50:28.481Z,13.42
2023-09-23T16:52:56.290Z,13.28
2023-09-23T16:55:25.191Z,13.05
2023-09-23T16:57:52.793Z,12.79
2023-09-23T17:00:20.433Z,12.62
2023-09-23T17:02:48.456Z,12.68
2023-09-23T17:05:16.289Z,12.63
2023-09-23T17:07:44.115Z,12.61
2023-09-23T17:10:12.003Z,12.59
2023-09-23T17:12:41.102Z,12.51
2023-09-23T17:15:10.297Z,12.49
2023-09-23T17:17:37.940Z,12.44
2023-09-23T17:20:06.800Z,12.27
2023-09-23T17:22:34.442Z,12.02
2023-09-23T17:25:02.293Z,12.05
2023-09-23T17:27:29.958Z,11.90
2023-09-23T17:29:58.840Z,11.48
2023-09-23T17:32:26.519Z,11.70
2023-09-23T17:34:54.143Z,11.55
2023-09-23T17:37:21.948Z,11.32
2023-09-23T17:39:49.515Z,11.37
2023-09-23T17:42:17.054Z,11.29
2023-09-23T17:44:46.572Z,11.14
2023-09-23T17:47:15.686Z,11.25
2023-09-23T17:49:43.212Z,11.13
2023-09-23T17:52:10.736Z,11.11
2023-09-23T17:54:38.307Z,10.94
2023-09-23T17:57:05.860Z,10.83
2023-09-23T17:59:34.995Z,10.76
2023-09-23T18:02:02.877Z,10.73
2023-09-23T18:04:32.619Z,10.76
2023-09-23T18:07:00.958Z,10.11
2023-09-23T18:09:29.542Z,10.52
2023-09-23T18:11:57.415Z,10.45
2023-09-23T18:14:25.444Z,10.00
2023-09-23T18:16:54.203Z,10.27
2023-09-23T18:19:22.045Z,10.12
2023-09-23T18:21:51.489Z,10.29
2023-09-23T18:24:19.234Z,10.02
2023-09-23T18:26:46.890Z,10.30
2023-09-23T18:29:14.777Z,10.01
2023-09-23T18:31:44.842Z,9.81
2023-09-23T18:34:12.839Z,9.82
2023-09-23T18:36:40.815Z,9.74
2023-09-23T18:39:09.880Z,9.17
2023-09-23T18:41:37.639Z,9.00
2023-09-23T18:44:06.031Z,9.22
2023-09-23T18:46:33.749Z,9.38
2023-09-23T18:49:01.699Z,9.06
2023-09-23T18:51:29.756Z,9.27
2023-09-23T18:53:57.573Z,9.15
2023-09-23T18:56:27.261Z,8.53
2023-09-23T18:58:55.275Z,8.33
2023-09-23T19:01:23.199Z,9.08
2023-09-23T19:03:53.266Z,8.94
2023-09-23T19:06:22.028Z,9.07
2023-09-23T19:08:49.943Z,8.78
2023-09-23T19:11:21.184Z,8.82
2023-09-23T19:14:01.231Z,8.35
2023-09-23T19:16:31.351Z,8.89
2023-09-23T19:19:02.914Z,8.68
2023-09-23T19:21:32.647Z,7.76
2023-09-23T19:24:01.534Z,8.24
2023-09-23T19:26:53.817Z,8.47
2023-09-23T19:29:27.350Z,7.90
2023-09-23T19:32:02.704Z,8.13
2023-09-23T19:34:33.390Z,7.53
2023-09-23T19:37:11.451Z,7.94
2023-09-23T19:39:40.196Z,7.75
2023-09-23T19:42:09.358Z,8.16
2023-09-23T19:44:40.361Z,8.08
2023-09-23T19:47:21.656Z,8.07
2023-09-23T19:49:54.650Z,7.98
2023-09-23T19:52:24.058Z,7.61
2023-09-23T19:54:52.920Z,7.52
2023-09-23T19:57:24.187Z,7.90
2023-09-23T20:00:00.920Z,8.08
2023-09-23T20:02:29.882Z,7.46
2023-09-23T20:04:58.622Z,8.17
2023-09-23T20:07:28.873Z,8.04
2023-09-23T20:09:57.622Z,7.37
2023-09-23T20:12:27.352Z,7.89
2023-09-23T20:14:58.257Z,7.04
2023-09-23T20:17:34.641Z,7.88
2023-09-23T20:20:06.402Z,6.76
2023-09-23T20:22:34.235Z,7.50
2023-09-23T20:25:02.001Z,7.72
2023-09-23T20:27:30.384Z,7.65
2023-09-23T20:30:07.076Z,7.50
2023-09-23T20:32:37.020Z,7.63
2023-09-23T20:35:07.032Z,7.65
2023-09-23T20:37:36.476Z,7.59
2023-09-23T20:40:07.486Z,7.43
2023-09-23T20:42:35.426Z,7.18
2023-09-23T20:45:06.300Z,7.40
2023-09-23T20:47:35.355Z,7.10
2023-09-23T20:50:05.598Z,7.21
2023-09-23T20:52:34.082Z,6.76
2023-09-23T20:55:01.903Z,7.01
2023-09-23T20:57:33.517Z,6.54
2023-09-23T21:00:01.953Z,6.55
2023-09-23T21:02:31.119Z,6.73
2023-09-23T21:04:59.403Z,6.26
2023-09-23T21:07:27.635Z,6.56
2023-09-23T21:09:55.624Z,6.55
2023-09-23T21:12:23.432Z,6.24
2023-09-23T21:14:51.545Z,6.52
2023-09-23T21:17:19.302Z,6.53
2023-09-23T21:19:48.516Z,6.45
2023-09-23T21:22:16.382Z,6.38
2023-09-23T21:24:44.305Z,6.54
2023-09-23T21:27:13.749Z,6.10
2023-09-23T21:29:41.586Z,6.39
2023-09-23T21:32:09.384Z,6.30
2023-09-23T21:34:37.055Z,6.45
2023-09-23T21:37:06.190Z,6.40
2023-09-23T21:39:34.079Z,6.11
2023-09-23T21:42:02.297Z,6.18
2023-09-23T21:44:30.439Z,6.14
2023-09-23T21:46:58.018Z,6.25
2023-09-23T21:49:25.523Z,6.24
2023-09-23T21:51:53.092Z,6.06
2023-09-23T21:54:21.951Z,6.07
2023-09-23T21:56:49.746Z,5.98
2023-09-23T21:59:17.418Z,6.07
2023-09-23T22:01:46.617Z,6.18
2023-09-23T22:04:15.243Z,6.17
2023-09-23T22:06:43.092Z,6.16
2023-09-23T22:09:10.630Z,6.07
2023-09-23T22:11:39.811Z,6.04
2023-09-23T22:14:07.930Z,5.87
2023-09-23T22:16:39.756Z,5.99
2023-09-23T22:19:07.348Z,6.03
2023-09-23T22:21:36.610Z,6.08
2023-09-23T22:24:06.902Z,5.94
2023-09-23T22:26:35.847Z,6.06
2023-09-23T22:29:09.949Z,6.03
2023-09-23T22:31:37.710Z,6.04
2023-09-23T22:34:05.355Z,6.09
2023-09-23T22:36:33.786Z,6.03
2023-09-23T22:39:01.866Z,5.97
2023-09-23T22:41:30.177Z,5.94
2023-09-23T22:43:58.081Z,6.01
2023-09-23T22:46:27.583Z,5.94
2023-09-23T22:48:55.337Z,5.99
2023-09-23T22:51:22.944Z,6.04
2023-09-23T22:53:51.833Z,5.91
2023-09-23T22:56:19.687Z,5.84
2023-09-23T22:58:48.823Z,5.69
2023-09-23T23:01:17.053Z,5.76
2023-09-23T23:03:46.578Z,5.50
2023-09-23T23:06:14.558Z,5.80
2023-09-23T23:08:43.159Z,5.75
2023-09-23T23:11:11.395Z,5.81
2023-09-23T23:13:39.844Z,5.66
2023-09-23T23:16:09.879Z,5.73
2023-09-23T23:18:38.760Z,5.72
2023-09-23T23:21:08.073Z,5.68
2023-09-23T23:23:35.650Z,5.68
2023-09-23T23:26:07.370Z,5.55
2023-09-23T23:28:35.645Z,5.72
2023-09-23T23:31:05.548Z,5.67
2023-09-23T23:33:33.316Z,5.73
2023-09-23T23:36:01.749Z,5.62
2023-09-23T23:38:31.427Z,5.69
2023-09-23T23:41:00.075Z,5.72
2023-09-23T23:43:27.696Z,5.71
2023-09-23T23:45:59.832Z,5.76
2023-09-23T23:48:28.812Z,5.75
2023-09-23T23:51:03.840Z,5.75
2023-09-23T23:53:33.493Z,5.69
2023-09-23T23:56:01.975Z,5.62
2023-09-23T23:58:29.915Z,5.73
